<?xml version='1.0' encoding='UTF-8'?><gpx version="1.1" creator="JPX - https://github.com/jenetics/jpx" xmlns="http://www.topografix.com/GPX/1/1"><trk><trkseg><trkpt lat="39.3980567" lon="9.5859272"><ele>218.00000000000003</ele><time>2026-04-07T14:29:02.878Z</time></trkpt><trkpt lat="39.3980084" lon="9.5860402"><ele>218.0</ele><time>2026-04-07T14:29:23.944Z</time></trkpt><trkpt lat="39.3979979" lon="9.5861286"><ele>218.0</ele><time>2026-04-07T14:29:34.929Z</time></trkpt><trkpt lat="39.3980072" lon="9.586225"><ele>218.0</ele><time>2026-04-07T14:29:49.947Z</time></trkpt><trkpt lat="39.397972" lon="9.5863076"><ele>218.00000000000003</ele><time>2026-04-07T14:29:58.918Z</time></trkpt><trkpt lat="39.3979949" lon="9.5863892"><ele>218.0</ele><time>2026-04-07T14:30:08.896Z</time></trkpt><trkpt lat="39.3979571" lon="9.5864757"><ele>215.57142857142858</ele><time>2026-04-07T14:30:21.898Z</time></trkpt><trkpt lat="39.3979606" lon="9.5865599"><ele>213.14285714285717</ele><time>2026-04-07T14:30:26.938Z</time></trkpt><trkpt lat="39.3979701" lon="9.5866443"><ele>210.71428571428572</ele><time>2026-04-07T14:30:31.878Z</time></trkpt><trkpt lat="39.3979949" lon="9.5867236"><ele>208.28571428571428</ele><time>2026-04-07T14:30:38.932Z</time></trkpt><trkpt lat="39.3980022" lon="9.5868074"><ele>205.85714285714286</ele><time>2026-04-07T14:30:46.895Z</time></trkpt><trkpt lat="39.3980013" lon="9.5868984"><ele>203.42857142857142</ele><time>2026-04-07T14:30:51.934Z</time></trkpt><trkpt lat="39.3979928" lon="9.5869941"><ele>201.0</ele><time>2026-04-07T14:30:56.873Z</time></trkpt><trkpt lat="39.397969" lon="9.5870773"><ele>183.0</ele><time>2026-04-07T14:31:01.854Z</time></trkpt><trkpt lat="39.3979856" lon="9.5871603"><ele>183.0</ele><time>2026-04-07T14:31:06.601Z</time></trkpt><trkpt lat="39.3979944" lon="9.5872455"><ele>183.0</ele><time>2026-04-07T14:31:11.56Z</time></trkpt><trkpt lat="39.3979858" lon="9.5873346"><ele>183.0</ele><time>2026-04-07T14:31:16.93Z</time></trkpt><trkpt lat="39.3979908" lon="9.5874298"><ele>183.0</ele><time>2026-04-07T14:31:21.869Z</time></trkpt><trkpt lat="39.397983" lon="9.5875153"><ele>183.0</ele><time>2026-04-07T14:31:26.942Z</time></trkpt><trkpt lat="39.3979349" lon="9.5875766"><ele>183.0</ele><time>2026-04-07T14:31:31.948Z</time></trkpt></trkseg></trk></gpx>